Time;durP1;ratioP1;P1;durP2;ratioP2;P2;SDS_P1;SDS_P2;PMS_P1;PMS_P2;Temp;Humidity;BMP_temperature;BMP_pressure;BME280_temperature;BME280_humidity;BME280_pressure;Samples;Min_cycle;Max_cycle;Signal;HPM_P1;HPM_P2
2021/09/02 00:00:54;;;;;;;10.70;5.03;;;;;;;;;;5051338;28;20009;-85
2021/09/02 00:03:20;;;;;;;13.43;5.00;;;;;;;;;;5051298;28;20071;-85
2021/09/02 00:05:45;;;;;;;9.80;5.18;;;;;;;;;;5049304;28;20021;-85
2021/09/02 00:08:10;;;;;;;15.48;5.05;;;;;;;;;;5051616;28;20013;-85
2021/09/02 00:10:35;;;;;;;12.25;5.40;;;;;;;;;;5051133;28;20377;-85
2021/09/02 00:13:01;;;;;;;12.23;5.88;;;;;;;;;;5050160;28;20116;-85
2021/09/02 00:15:26;;;;;;;16.45;5.80;;;;;;;;;;5049104;28;20034;-85
2021/09/02 00:17:51;;;;;;;10.40;5.90;;;;;;;;;;5049795;28;20017;-84
2021/09/02 00:20:16;;;;;;;18.42;5.40;;;;;;;;;;5051079;28;20017;-85
2021/09/02 00:22:42;;;;;;;9.82;4.68;;;;;;;;;;5051040;28;20088;-85
2021/09/02 00:25:07;;;;;;;14.65;5.57;;;;;;;;;;5050851;28;20104;-85
2021/09/02 00:27:33;;;;;;;13.15;5.43;;;;;;;;;;5049929;28;20333;-85
2021/09/02 00:29:58;;;;;;;13.07;5.47;;;;;;;;;;5049454;28;20032;-85
2021/09/02 00:32:23;;;;;;;13.02;5.32;;;;;;;;;;5049817;28;20181;-85
2021/09/02 00:34:48;;;;;;;13.38;5.80;;;;;;;;;;5052661;28;20025;-85
2021/09/02 00:37:13;;;;;;;14.25;5.43;;;;;;;;;;5053807;28;20028;-84
2021/09/02 00:39:39;;;;;;;15.77;5.70;;;;;;;;;;5054003;28;20025;-85
2021/09/02 00:42:04;;;;;;;10.57;5.43;;;;;;;;;;5053605;28;20020;-85
2021/09/02 00:44:33;;;;;;;16.42;5.40;;;;;;;;;;5052835;28;20086;-85
2021/09/02 00:46:59;;;;;;;12.50;5.22;;;;;;;;;;5053056;28;20021;-85
2021/09/02 00:49:24;;;;;;;16.80;5.50;;;;;;;;;;5054895;28;20037;-85
2021/09/02 00:51:50;;;;;;;14.32;5.68;;;;;;;;;;5055260;28;20522;-85
2021/09/02 00:54:15;;;;;;;16.38;5.47;;;;;;;;;;5053071;28;20036;-85
2021/09/02 00:56:40;;;;;;;14.25;5.50;;;;;;;;;;5052999;28;20021;-85
2021/09/02 00:59:05;;;;;;;18.77;5.95;;;;;;;;;;5053332;28;20375;-84
2021/09/02 01:01:30;;;;;;;13.15;5.75;;;;;;;;;;5053607;28;20036;-85
2021/09/02 01:03:56;;;;;;;15.63;5.75;;;;;;;;;;5053310;28;20275;-85
2021/09/02 01:06:21;;;;;;;15.48;5.35;;;;;;;;;;5054238;28;20096;-85
2021/09/02 01:08:48;;;;;;;11.15;4.93;;;;;;;;;;5054605;28;20120;-85
2021/09/02 01:11:13;;;;;;;14.77;5.25;;;;;;;;;;5053126;28;20461;-85
2021/09/02 01:13:39;;;;;;;14.32;5.40;;;;;;;;;;5054560;28;20166;-85
2021/09/02 01:16:04;;;;;;;15.35;5.97;;;;;;;;;;5052190;28;20055;-85
2021/09/02 01:18:29;;;;;;;16.25;6.10;;;;;;;;;;5054133;28;20112;-85
2021/09/02 01:20:54;;;;;;;14.63;5.82;;;;;;;;;;5052817;28;20022;-85
2021/09/02 01:23:21;;;;;;;14.48;5.38;;;;;;;;;;5052516;28;20080;-85
2021/09/02 01:25:46;;;;;;;16.92;5.35;;;;;;;;;;5052410;28;20452;-85
2021/09/02 01:28:12;;;;;;;13.57;5.55;;;;;;;;;;5052371;28;20064;-85
2021/09/02 01:30:38;;;;;;;10.77;5.32;;;;;;;;;;5052821;28;20082;-85
2021/09/02 01:33:03;;;;;;;11.27;5.40;;;;;;;;;;5052725;28;20021;-85
2021/09/02 01:35:32;;;;;;;12.10;5.40;;;;;;;;;;5052239;28;20036;-85
2021/09/02 01:38:02;;;;;;;15.55;5.78;;;;;;;;;;5052748;28;20027;-85
2021/09/02 01:40:32;;;;;;;18.02;7.30;;;;;;;;;;5052100;28;20167;-85
2021/09/02 01:42:58;;;;;;;12.73;6.82;;;;;;;;;;5052821;28;20121;-85
2021/09/02 01:45:24;;;;;;;14.30;6.05;;;;;;;;;;5052576;28;20103;-85
2021/09/02 01:47:49;;;;;;;13.25;6.13;;;;;;;;;;5053445;28;20024;-85
2021/09/02 01:50:21;;;;;;;15.38;6.88;;;;;;;;;;5052206;28;20045;-84
2021/09/02 01:52:46;;;;;;;13.65;6.40;;;;;;;;;;5052620;28;20017;-85
2021/09/02 01:55:12;;;;;;;14.93;6.60;;;;;;;;;;5051740;28;20029;-85
2021/09/02 01:57:37;;;;;;;13.48;6.30;;;;;;;;;;5053509;28;20009;-85
2021/09/02 02:00:03;;;;;;;13.82;6.35;;;;;;;;;;5052748;28;20025;-85
2021/09/02 02:02:29;;;;;;;12.13;6.55;;;;;;;;;;5052085;28;20017;-85
2021/09/02 02:04:54;;;;;;;13.25;6.20;;;;;;;;;;5051757;28;20498;-85
2021/09/02 02:07:19;;;;;;;14.27;5.88;;;;;;;;;;5051853;28;20021;-85
2021/09/02 02:09:44;;;;;;;11.65;5.65;;;;;;;;;;5053243;28;20052;-85
2021/09/02 02:12:09;;;;;;;13.27;6.50;;;;;;;;;;5052266;28;20108;-85
2021/09/02 02:14:37;;;;;;;15.68;6.35;;;;;;;;;;5052635;28;20100;-85
2021/09/02 02:17:03;;;;;;;13.80;5.80;;;;;;;;;;5050727;28;20013;-85
2021/09/02 02:19:28;;;;;;;14.80;5.72;;;;;;;;;;5053325;28;20100;-85
2021/09/02 02:21:53;;;;;;;13.55;6.13;;;;;;;;;;5051838;28;20128;-85
2021/09/02 02:24:18;;;;;;;13.70;6.63;;;;;;;;;;5051241;28;20548;-85
2021/09/02 02:26:43;;;;;;;16.33;6.80;;;;;;;;;;5051808;28;20491;-85
2021/09/02 02:29:09;;;;;;;14.13;5.85;;;;;;;;;;5051833;28;20029;-85
2021/09/02 02:31:34;;;;;;;16.15;5.95;;;;;;;;;;5051768;28;20025;-85
2021/09/02 02:33:59;;;;;;;20.02;7.28;;;;;;;;;;5051507;28;20174;-85
2021/09/02 02:36:25;;;;;;;13.63;6.95;;;;;;;;;;5051248;28;20103;-85
2021/09/02 02:38:50;;;;;;;15.85;7.07;;;;;;;;;;5051352;28;20013;-85
2021/09/02 02:41:15;;;;;;;12.00;6.32;;;;;;;;;;5051250;28;20026;-85
2021/09/02 02:43:41;;;;;;;18.58;6.57;;;;;;;;;;5051099;28;20009;-85
2021/09/02 02:46:06;;;;;;;13.73;6.43;;;;;;;;;;5052473;28;20346;-85
2021/09/02 02:48:31;;;;;;;18.00;6.78;;;;;;;;;;5051282;28;20056;-85
2021/09/02 02:50:56;;;;;;;16.88;6.80;;;;;;;;;;5051174;28;20068;-85
2021/09/02 02:53:22;;;;;;;13.10;6.43;;;;;;;;;;5050981;28;20063;-85
2021/09/02 02:55:47;;;;;;;17.42;7.05;;;;;;;;;;5050380;28;20025;-85
2021/09/02 02:58:12;;;;;;;15.02;6.43;;;;;;;;;;5049985;28;20035;-85
2021/09/02 03:00:37;;;;;;;17.48;6.22;;;;;;;;;;5050726;28;20023;-85
2021/09/02 03:03:02;;;;;;;17.15;6.95;;;;;;;;;;5052485;28;20369;-85
2021/09/02 03:05:28;;;;;;;16.23;6.95;;;;;;;;;;5050431;28;20029;-85
2021/09/02 03:07:53;;;;;;;16.98;6.78;;;;;;;;;;5051292;28;20028;-85
2021/09/02 03:10:18;;;;;;;16.02;6.72;;;;;;;;;;5051890;28;20024;-85
2021/09/02 03:12:43;;;;;;;14.20;6.57;;;;;;;;;;5050868;28;20009;-85
2021/09/02 03:15:09;;;;;;;13.02;6.72;;;;;;;;;;5052084;28;20016;-85
2021/09/02 03:17:34;;;;;;;13.38;7.05;;;;;;;;;;5050980;28;20104;-85
2021/09/02 03:20:00;;;;;;;12.48;6.72;;;;;;;;;;5050500;28;20013;-85
2021/09/02 03:22:25;;;;;;;15.35;7.43;;;;;;;;;;5050789;28;20017;-85
2021/09/02 03:24:50;;;;;;;19.10;8.20;;;;;;;;;;5049854;28;20465;-85
2021/09/02 03:27:16;;;;;;;15.40;7.38;;;;;;;;;;5050812;28;20032;-85
2021/09/02 03:29:41;;;;;;;15.75;7.47;;;;;;;;;;5050450;28;20036;-85
2021/09/02 03:32:06;;;;;;;16.50;7.10;;;;;;;;;;5050368;28;20031;-85
2021/09/02 03:34:32;;;;;;;25.10;8.15;;;;;;;;;;5049759;28;20025;-85
2021/09/02 03:36:57;;;;;;;20.17;9.25;;;;;;;;;;5050374;28;20094;-85
2021/09/02 03:39:23;;;;;;;22.75;9.80;;;;;;;;;;5050439;28;20021;-85
2021/09/02 03:41:48;;;;;;;22.95;9.65;;;;;;;;;;5050504;28;20013;-85
2021/09/02 03:44:13;;;;;;;21.67;8.68;;;;;;;;;;5050012;28;20028;-84
2021/09/02 03:46:39;;;;;;;20.30;9.18;;;;;;;;;;5051691;28;20090;-85
2021/09/02 03:49:04;;;;;;;23.23;9.02;;;;;;;;;;5050477;28;20027;-85
2021/09/02 03:51:29;;;;;;;22.00;8.00;;;;;;;;;;5050329;28;20108;-83
2021/09/02 03:53:54;;;;;;;23.02;9.52;;;;;;;;;;5050371;28;20120;-85
2021/09/02 03:56:20;;;;;;;18.52;8.20;;;;;;;;;;5049972;28;20443;-85
2021/09/02 03:58:45;;;;;;;22.90;9.05;;;;;;;;;;5050287;28;20021;-85
2021/09/02 04:01:10;;;;;;;21.95;8.35;;;;;;;;;;5050596;28;20044;-85
2021/09/02 04:03:35;;;;;;;22.17;9.20;;;;;;;;;;5051458;28;20096;-85
2021/09/02 04:06:00;;;;;;;18.73;9.25;;;;;;;;;;5049701;28;20031;-85
2021/09/02 04:08:26;;;;;;;20.20;8.85;;;;;;;;;;5050733;28;20479;-85
2021/09/02 04:10:51;;;;;;;18.10;8.48;;;;;;;;;;5050101;28;20104;-85
2021/09/02 04:13:16;;;;;;;22.95;8.60;;;;;;;;;;5050161;28;20029;-85
2021/09/02 04:15:41;;;;;;;25.77;9.13;;;;;;;;;;5049085;28;20472;-85
2021/09/02 04:18:07;;;;;;;19.90;9.13;;;;;;;;;;5049871;28;20103;-85
2021/09/02 04:20:32;;;;;;;19.58;8.40;;;;;;;;;;5050174;28;20035;-85
2021/09/02 04:22:57;;;;;;;21.13;8.60;;;;;;;;;;5051366;28;20009;-84
2021/09/02 04:25:22;;;;;;;23.73;9.88;;;;;;;;;;5049491;28;20181;-85
2021/09/02 04:27:48;;;;;;;19.20;8.57;;;;;;;;;;5050022;28;20486;-84
2021/09/02 04:30:13;;;;;;;18.45;9.50;;;;;;;;;;5049866;28;20021;-85
2021/09/02 04:32:40;;;;;;;17.88;8.55;;;;;;;;;;5049729;28;20102;-84
2021/09/02 04:35:05;;;;;;;22.92;9.95;;;;;;;;;;5049481;28;20074;-85
2021/09/02 04:37:34;;;;;;;21.80;9.52;;;;;;;;;;5049649;28;20482;-85
2021/09/02 04:40:00;;;;;;;21.60;9.35;;;;;;;;;;5049187;28;20508;-84
2021/09/02 04:42:25;;;;;;;20.58;8.93;;;;;;;;;;5049670;28;20013;-84
2021/09/02 04:44:50;;;;;;;18.40;8.85;;;;;;;;;;5050149;28;20048;-84
2021/09/02 04:47:15;;;;;;;18.58;8.18;;;;;;;;;;5050605;28;20013;-85
2021/09/02 04:49:40;;;;;;;16.55;8.27;;;;;;;;;;5049749;28;20089;-85
2021/09/02 04:52:06;;;;;;;23.65;9.77;;;;;;;;;;5049506;28;20044;-85
2021/09/02 04:54:31;;;;;;;17.40;7.95;;;;;;;;;;5050589;28;20083;-85
2021/09/02 04:56:56;;;;;;;16.33;7.97;;;;;;;;;;5049609;28;20025;-85
2021/09/02 04:59:21;;;;;;;16.75;7.60;;;;;;;;;;5049747;28;20017;-85
2021/09/02 05:01:46;;;;;;;16.27;7.18;;;;;;;;;;5049579;28;20366;-85
2021/09/02 05:04:12;;;;;;;16.23;7.00;;;;;;;;;;5049140;28;20043;-85
2021/09/02 05:06:37;;;;;;;18.92;7.90;;;;;;;;;;5049818;28;20017;-85
2021/09/02 05:09:02;;;;;;;16.50;8.02;;;;;;;;;;5049425;28;20017;-84
2021/09/02 05:11:27;;;;;;;15.80;8.02;;;;;;;;;;5049814;28;20025;-85
2021/09/02 05:13:52;;;;;;;14.02;7.10;;;;;;;;;;5049318;28;20009;-85
2021/09/02 05:16:18;;;;;;;16.85;8.25;;;;;;;;;;5049257;28;20036;-85
2021/09/02 05:18:43;;;;;;;18.60;7.43;;;;;;;;;;5049497;28;20017;-85
2021/09/02 05:21:08;;;;;;;17.13;7.18;;;;;;;;;;5051263;28;20013;-84
2021/09/02 05:23:33;;;;;;;15.23;7.43;;;;;;;;;;5052771;28;20033;-85
2021/09/02 05:25:58;;;;;;;16.88;7.78;;;;;;;;;;5053321;28;20024;-84
2021/09/02 05:28:24;;;;;;;20.30;7.50;;;;;;;;;;5052928;28;20380;-85
2021/09/02 05:30:49;;;;;;;16.58;7.18;;;;;;;;;;5053024;28;20499;-85
2021/09/02 05:33:14;;;;;;;17.88;7.88;;;;;;;;;;5053860;28;20036;-85
2021/09/02 05:35:39;;;;;;;15.82;7.80;;;;;;;;;;5052091;28;20017;-85
2021/09/02 05:38:08;;;;;;;16.70;8.25;;;;;;;;;;5052309;28;20074;-85
2021/09/02 05:40:34;;;;;;;22.02;8.48;;;;;;;;;;5052942;28;20464;-85
2021/09/02 05:42:59;;;;;;;17.00;8.00;;;;;;;;;;5052410;28;20108;-85
2021/09/02 05:45:24;;;;;;;21.00;9.13;;;;;;;;;;5052273;28;20021;-85
2021/09/02 05:47:49;;;;;;;17.60;8.18;;;;;;;;;;5052493;28;20380;-85
2021/09/02 05:50:14;;;;;;;15.30;7.80;;;;;;;;;;5054279;28;20480;-85
2021/09/02 05:52:40;;;;;;;19.90;7.75;;;;;;;;;;5060112;28;20706;-85
2021/09/02 05:55:05;;;;;;;14.88;8.25;;;;;;;;;;5056860;28;20044;-85
2021/09/02 05:57:31;;;;;;;16.52;7.72;;;;;;;;;;5045903;28;20048;-85
2021/09/02 05:59:56;;;;;;;17.02;7.90;;;;;;;;;;5053622;28;20389;-85
2021/09/02 06:02:21;;;;;;;18.60;8.40;;;;;;;;;;5052691;28;20419;-85
2021/09/02 06:04:46;;;;;;;14.93;7.90;;;;;;;;;;5053637;28;20021;-85
2021/09/02 06:07:12;;;;;;;18.58;8.38;;;;;;;;;;5053347;28;20024;-85
2021/09/02 06:09:37;;;;;;;16.95;8.70;;;;;;;;;;5044444;28;20022;-85
2021/09/02 06:12:02;;;;;;;23.73;7.05;;;;;;;;;;5048514;28;20024;-85
2021/09/02 06:14:28;;;;;;;18.17;8.52;;;;;;;;;;5053504;28;20024;-85
2021/09/02 06:16:53;;;;;;;16.73;7.57;;;;;;;;;;5052935;28;20115;-85
2021/09/02 06:19:18;;;;;;;17.45;8.23;;;;;;;;;;5047488;28;20013;-85
2021/09/02 06:21:43;;;;;;;16.58;8.05;;;;;;;;;;5052616;28;20111;-85
2021/09/02 06:24:08;;;;;;;16.70;7.82;;;;;;;;;;5050928;28;20017;-85
2021/09/02 06:26:34;;;;;;;18.95;8.55;;;;;;;;;;5051853;28;21432;-86
2021/09/02 06:28:59;;;;;;;15.10;7.90;;;;;;;;;;5050981;28;20025;-86
2021/09/02 06:31:24;;;;;;;17.45;7.78;;;;;;;;;;5047653;28;20029;-86
2021/09/02 06:33:49;;;;;;;20.45;8.35;;;;;;;;;;5047446;28;20040;-86
2021/09/02 06:36:15;;;;;;;19.40;9.18;;;;;;;;;;5042432;28;20056;-86
2021/09/02 06:38:40;;;;;;;17.80;7.95;;;;;;;;;;5049500;28;20299;-85
2021/09/02 06:41:05;;;;;;;19.67;9.02;;;;;;;;;;5043086;28;20108;-86
2021/09/02 06:43:30;;;;;;;19.25;8.95;;;;;;;;;;5041056;28;20091;-85
2021/09/02 06:45:55;;;;;;;19.00;8.68;;;;;;;;;;5052509;28;20841;-85
2021/09/02 06:48:21;;;;;;;21.25;8.65;;;;;;;;;;5043287;28;20473;-86
2021/09/02 06:50:46;;;;;;;19.45;8.90;;;;;;;;;;5050853;28;20362;-86
2021/09/02 06:53:11;;;;;;;16.90;7.78;;;;;;;;;;5041741;28;20071;-86
2021/09/02 06:55:36;;;;;;;22.88;8.93;;;;;;;;;;5044660;28;20106;-85
2021/09/02 06:58:02;;;;;;;18.83;8.23;;;;;;;;;;5047177;28;20025;-85
2021/09/02 07:00:27;;;;;;;16.20;8.10;;;;;;;;;;5052127;28;20017;-85
2021/09/02 07:02:52;;;;;;;19.20;8.30;;;;;;;;;;5043574;28;20012;-85
2021/09/02 07:05:17;;;;;;;19.20;8.45;;;;;;;;;;5051197;28;20388;-85
2021/09/02 07:07:43;;;;;;;17.90;9.32;;;;;;;;;;5051636;28;20550;-85
2021/09/02 07:10:08;;;;;;;21.02;8.52;;;;;;;;;;5053199;28;20021;-85
2021/09/02 07:12:34;;;;;;;20.50;8.05;;;;;;;;;;5051069;28;20260;-85
2021/09/02 07:14:59;;;;;;;17.88;8.02;;;;;;;;;;5043587;28;20021;-85
2021/09/02 07:17:24;;;;;;;16.15;7.80;;;;;;;;;;5051956;28;20009;-85
2021/09/02 07:19:49;;;;;;;18.63;8.25;;;;;;;;;;5051695;28;20039;-85
2021/09/02 07:22:15;;;;;;;16.65;7.18;;;;;;;;;;5051324;28;20120;-85
2021/09/02 07:24:40;;;;;;;16.60;7.82;;;;;;;;;;5053011;28;20009;-85
2021/09/02 07:27:05;;;;;;;16.55;8.20;;;;;;;;;;5051808;28;20380;-85
2021/09/02 07:29:31;;;;;;;17.17;8.07;;;;;;;;;;5045439;28;20365;-85
2021/09/02 07:31:56;;;;;;;19.23;8.20;;;;;;;;;;5049712;28;20021;-84
2021/09/02 07:34:21;;;;;;;24.65;9.48;;;;;;;;;;5051063;28;20021;-85
2021/09/02 07:36:46;;;;;;;19.17;8.40;;;;;;;;;;5048787;28;20063;-84
2021/09/02 07:39:12;;;;;;;22.67;8.48;;;;;;;;;;5050324;28;20123;-85
2021/09/02 07:41:37;;;;;;;25.52;8.73;;;;;;;;;;5085084;28;20036;-85
2021/09/02 07:44:03;;;;;;;20.92;8.43;;;;;;;;;;5051821;28;20017;-85
2021/09/02 07:46:28;;;;;;;17.15;8.55;;;;;;;;;;5050133;28;20025;-85
2021/09/02 07:48:53;;;;;;;18.77;8.40;;;;;;;;;;5051453;28;20028;-85
2021/09/02 07:51:19;;;;;;;21.80;8.07;;;;;;;;;;5051396;28;20021;-85
2021/09/02 07:53:44;;;;;;;18.30;7.78;;;;;;;;;;5049691;28;20121;-85
2021/09/02 07:56:10;;;;;;;15.70;7.43;;;;;;;;;;5050283;28;20017;-84
2021/09/02 07:58:35;;;;;;;19.48;8.27;;;;;;;;;;5050195;28;20021;-85
2021/09/02 08:01:01;;;;;;;19.58;8.38;;;;;;;;;;5049901;28;20048;-85
2021/09/02 08:03:26;;;;;;;17.73;7.40;;;;;;;;;;5049681;28;20025;-84
2021/09/02 08:05:52;;;;;;;17.05;7.57;;;;;;;;;;5049582;28;20021;-85
2021/09/02 08:08:18;;;;;;;20.60;7.63;;;;;;;;;;5050120;28;20033;-85
2021/09/02 08:10:43;;;;;;;14.73;6.78;;;;;;;;;;5049935;28;20021;-84
2021/09/02 08:13:09;;;;;;;17.65;7.35;;;;;;;;;;5050001;28;20066;-84
2021/09/02 08:15:36;;;;;;;23.98;7.47;;;;;;;;;;5049765;28;20064;-84
2021/09/02 08:18:01;;;;;;;19.55;7.28;;;;;;;;;;5051594;28;20100;-84
2021/09/02 08:20:27;;;;;;;25.08;9.98;;;;;;;;;;5049455;28;20540;-84
2021/09/02 08:22:52;;;;;;;27.83;10.13;;;;;;;;;;5049594;28;20070;-84
2021/09/02 08:25:17;;;;;;;19.80;8.52;;;;;;;;;;5050761;28;20054;-85
2021/09/02 08:27:44;;;;;;;19.17;8.52;;;;;;;;;;5049985;28;20381;-84
2021/09/02 08:30:11;;;;;;;21.42;9.18;;;;;;;;;;5049708;28;20028;-85
2021/09/02 08:32:36;;;;;;;21.30;8.20;;;;;;;;;;5049685;28;20032;-85
2021/09/02 08:35:01;;;;;;;20.95;8.65;;;;;;;;;;5049145;28;20017;-84
2021/09/02 08:37:26;;;;;;;23.25;9.60;;;;;;;;;;5049909;28;20495;-85
2021/09/02 08:39:53;;;;;;;20.92;9.88;;;;;;;;;;5051435;28;20020;-87
2021/09/02 08:42:18;;;;;;;27.67;9.70;;;;;;;;;;5050345;28;20102;-88
2021/09/02 08:44:43;;;;;;;21.67;8.75;;;;;;;;;;5049908;28;20071;-86
2021/09/02 08:47:10;;;;;;;28.38;10.38;;;;;;;;;;5051454;28;20028;-87
2021/09/02 08:49:35;;;;;;;22.10;9.23;;;;;;;;;;5051030;28;20041;-87
2021/09/02 08:52:00;;;;;;;23.00;9.25;;;;;;;;;;5049449;28;20017;-87
2021/09/02 08:54:26;;;;;;;19.98;7.90;;;;;;;;;;5050286;28;20025;-87
2021/09/02 08:56:51;;;;;;;25.02;8.35;;;;;;;;;;5053253;28;20029;-87
2021/09/02 08:59:16;;;;;;;20.08;8.65;;;;;;;;;;5053723;28;20029;-87
2021/09/02 09:01:46;;;;;;;20.67;8.30;;;;;;;;;;5054716;28;20017;-89
2021/09/02 09:04:12;;;;;;;19.00;8.13;;;;;;;;;;5056448;28;20013;-89
2021/09/02 09:06:38;;;;;;;20.90;7.75;;;;;;;;;;5055080;28;20025;-90
2021/09/02 09:09:10;;;;;;;27.10;8.88;;;;;;;;;;5054605;28;20024;-89
2021/09/02 09:11:35;;;;;;;;;;;;;;;;;;5056337;28;20020;-89
2021/09/02 09:14:08;;;;;;;17.33;8.30;;;;;;;;;;5054996;28;19966;-89
2021/09/02 09:16:42;;;;;;;21.10;9.10;;;;;;;;;;5055572;28;20071;-91
2021/09/02 09:19:07;;;;;;;16.50;7.63;;;;;;;;;;5054696;28;20121;-84
2021/09/02 09:21:32;;;;;;;22.23;8.27;;;;;;;;;;5053371;28;20041;-84
2021/09/02 09:24:02;;;;;;;20.05;8.57;;;;;;;;;;5049175;28;20081;-86
2021/09/02 09:26:28;;;;;;;20.60;8.50;;;;;;;;;;5051423;28;20120;-86
2021/09/02 09:29:15;;;;;;;23.73;8.90;;;;;;;;;;5052545;28;20104;-86
2021/09/02 09:31:40;;;;;;;16.52;7.60;;;;;;;;;;5052465;28;20029;-86
2021/09/02 09:34:06;;;;;;;20.48;9.52;;;;;;;;;;5051859;28;20503;-85
2021/09/02 09:36:33;;;;;;;17.63;7.90;;;;;;;;;;5053369;28;20017;-86
2021/09/02 09:38:59;;;;;;;24.42;9.32;;;;;;;;;;5054084;28;20376;-86
2021/09/02 09:41:35;;;;;;;20.90;8.73;;;;;;;;;;5053585;28;20025;-86
2021/09/02 09:44:17;;;;;;;23.98;8.20;;;;;;;;;;5053713;28;20016;-86
2021/09/02 09:46:42;;;;;;;20.75;8.20;;;;;;;;;;5053184;28;20091;-86
2021/09/02 09:49:07;;;;;;;26.40;8.50;;;;;;;;;;5046325;28;20021;-86
2021/09/02 09:51:32;;;;;;;18.25;7.28;;;;;;;;;;5048053;28;20018;-86
2021/09/02 09:53:57;;;;;;;20.27;7.68;;;;;;;;;;5052170;28;20447;-86
2021/09/02 09:56:24;;;;;;;15.48;7.75;;;;;;;;;;5049419;28;20047;-86
2021/09/02 09:58:50;;;;;;;19.90;7.20;;;;;;;;;;5050294;28;20035;-85
2021/09/02 10:01:15;;;;;;;19.45;7.53;;;;;;;;;;5043888;28;20053;-86
2021/09/02 10:03:41;;;;;;;19.33;7.60;;;;;;;;;;5052956;28;20125;-85
2021/09/02 10:06:08;;;;;;;16.35;8.20;;;;;;;;;;5053872;28;20021;-87
2021/09/02 10:08:34;;;;;;;25.02;7.88;;;;;;;;;;5054647;28;20138;-87
2021/09/02 10:11:00;;;;;;;17.27;7.80;;;;;;;;;;5050349;28;20021;-86
2021/09/02 10:13:26;;;;;;;20.13;7.35;;;;;;;;;;5046117;28;20491;-87
2021/09/02 10:15:52;;;;;;;17.50;6.82;;;;;;;;;;5054209;28;20009;-87
2021/09/02 10:18:17;;;;;;;15.82;6.85;;;;;;;;;;5053093;28;20023;-87
2021/09/02 10:20:43;;;;;;;14.93;6.72;;;;;;;;;;5052566;28;20013;-87
2021/09/02 10:23:08;;;;;;;17.30;8.02;;;;;;;;;;5053053;28;20017;-87
2021/09/02 10:25:35;;;;;;;19.00;6.32;;;;;;;;;;5052588;28;20425;-87
2021/09/02 10:28:00;;;;;;;15.88;6.95;;;;;;;;;;5052920;28;20032;-88
2021/09/02 10:30:26;;;;;;;14.93;6.43;;;;;;;;;;5052623;28;20029;-87
2021/09/02 10:32:52;;;;;;;18.00;7.18;;;;;;;;;;5053969;28;20057;-87
2021/09/02 10:35:20;;;;;;;17.40;6.93;;;;;;;;;;5052702;28;20503;-88
2021/09/02 10:37:45;;;;;;;18.13;6.47;;;;;;;;;;5052971;28;20017;-88
2021/09/02 10:40:17;;;;;;;16.83;6.65;;;;;;;;;;5052508;28;20063;-87
2021/09/02 10:42:49;;;;;;;16.80;6.93;;;;;;;;;;5043004;28;20096;-87
2021/09/02 10:45:30;;;;;;;17.67;7.65;;;;;;;;;;5073327;28;20083;-87
2021/09/02 10:48:03;;;;;;;15.40;6.78;;;;;;;;;;5052269;28;20384;-88
2021/09/02 10:50:30;;;;;;;14.02;6.72;;;;;;;;;;5051904;28;20021;-86
2021/09/02 10:53:12;;;;;;;13.15;6.50;;;;;;;;;;5052500;28;20112;-87
2021/09/02 10:55:41;;;;;;;14.20;6.75;;;;;;;;;;5039919;28;20053;-87
2021/09/02 10:58:12;;;;;;;14.93;6.82;;;;;;;;;;5053561;28;20055;-87
2021/09/02 11:00:41;;;;;;;12.57;6.40;;;;;;;;;;5052050;28;20074;-87
2021/09/02 11:03:13;;;;;;;13.43;7.50;;;;;;;;;;5051414;28;20023;-87
2021/09/02 11:05:38;;;;;;;;;;;;;;;;;;5053206;28;20086;-87
2021/09/02 11:08:03;;;;;;;15.10;7.15;;;;;;;;;;5045140;28;20348;-87
2021/09/02 11:10:28;;;;;;;16.83;7.68;;;;;;;;;;5049715;28;20282;-86
2021/09/02 11:13:07;;;;;;;21.40;8.55;;;;;;;;;;5051347;28;20025;-87
2021/09/02 11:15:34;;;;;;;19.42;7.28;;;;;;;;;;5050075;28;20030;-87
2021/09/02 11:18:00;;;;;;;16.67;7.97;;;;;;;;;;5051259;28;20040;-87
2021/09/02 11:20:28;;;;;;;18.45;8.80;;;;;;;;;;5053144;28;20654;-86
2021/09/02 11:23:08;;;;;;;14.75;7.35;;;;;;;;;;5051794;28;20017;-86
2021/09/02 11:25:41;;;;;;;16.90;6.90;;;;;;;;;;5050661;28;20388;-87
2021/09/02 11:28:06;;;;;;;24.45;10.45;;;;;;;;;;5052961;28;20483;-87
2021/09/02 11:30:33;;;;;;;19.27;9.15;;;;;;;;;;5051317;28;20047;-87
2021/09/02 11:32:59;;;;;;;17.17;8.45;;;;;;;;;;5040278;28;20032;-87
2021/09/02 11:35:24;;;;;;;16.85;8.23;;;;;;;;;;5052526;28;20525;-87
2021/09/02 11:37:50;;;;;;;13.65;7.35;;;;;;;;;;5052595;28;20044;-87
2021/09/02 11:40:20;;;;;;;16.13;8.50;;;;;;;;;;5050795;28;20029;-88
2021/09/02 11:42:46;;;;;;;19.83;7.45;;;;;;;;;;5051390;28;20029;-88
2021/09/02 11:45:14;;;;;;;17.40;8.27;;;;;;;;;;5051676;28;20025;-88
2021/09/02 11:47:39;;;;;;;18.65;7.68;;;;;;;;;;5051217;28;20024;-88
2021/09/02 11:50:05;;;;;;;13.20;7.63;;;;;;;;;;5050744;28;20036;-88
2021/09/02 11:52:57;;;;;;;15.43;9.75;;;;;;;;;;5050577;28;20017;-88
2021/09/02 11:55:22;;;;;;;16.05;9.70;;;;;;;;;;5048433;28;20095;-88
2021/09/02 11:57:51;;;;;;;17.85;8.57;;;;;;;;;;5051753;28;20025;-88
2021/09/02 12:00:17;;;;;;;13.80;8.70;;;;;;;;;;5050067;28;20087;-88
2021/09/02 12:02:45;;;;;;;19.30;9.50;;;;;;;;;;5050340;28;20013;-88
2021/09/02 12:05:11;;;;;;;15.98;8.82;;;;;;;;;;5050965;28;20032;-88
2021/09/02 12:07:36;;;;;;;18.48;9.10;;;;;;;;;;5051403;28;20017;-88
2021/09/02 12:10:03;;;;;;;18.15;8.07;;;;;;;;;;5051622;28;20055;-88
2021/09/02 12:12:29;;;;;;;16.80;8.90;;;;;;;;;;5049814;28;20041;-88
2021/09/02 12:14:54;;;;;;;15.50;9.35;;;;;;;;;;5049738;28;20380;-88
2021/09/02 12:17:19;;;;;;;15.77;8.95;;;;;;;;;;5050059;28;20021;-88
2021/09/02 12:19:55;;;;;;;15.38;7.68;;;;;;;;;;5051666;28;20017;-88
2021/09/02 12:22:21;;;;;;;12.75;6.28;;;;;;;;;;5049762;28;20461;-88
2021/09/02 12:24:46;;;;;;;15.25;7.50;;;;;;;;;;5049647;28;20040;-87
2021/09/02 12:27:12;;;;;;;15.05;7.43;;;;;;;;;;5049939;28;20021;-88
2021/09/02 12:29:47;;;;;;;14.75;7.68;;;;;;;;;;5051125;28;20021;-88
2021/09/02 12:32:19;;;;;;;17.98;8.13;;;;;;;;;;5054099;28;20036;-88
2021/09/02 12:34:45;;;;;;;12.77;7.22;;;;;;;;;;5054273;28;20020;-88
2021/09/02 12:37:14;;;;;;;14.90;6.68;;;;;;;;;;5054962;28;20013;-88
2021/09/02 12:39:50;;;;;;;17.40;7.45;;;;;;;;;;5053325;28;20024;-88
2021/09/02 12:42:25;;;;;;;17.83;7.22;;;;;;;;;;5053088;28;20071;-88
2021/09/02 12:45:09;;;;;;;13.60;6.80;;;;;;;;;;5053020;28;20057;-88
2021/09/02 12:47:35;;;;;;;14.10;7.30;;;;;;;;;;5054055;28;20471;-88
2021/09/02 12:50:00;;;;;;;13.63;6.75;;;;;;;;;;5054549;28;20053;-88
2021/09/02 12:52:32;;;;;;;16.52;7.35;;;;;;;;;;5053821;28;20741;-88
2021/09/02 12:55:14;;;;;;;14.23;7.03;;;;;;;;;;5052733;28;20075;-87
2021/09/02 12:57:41;;;;;;;15.45;7.25;;;;;;;;;;5053608;28;20017;-88
2021/09/02 13:00:07;;;;;;;15.75;7.20;;;;;;;;;;5053431;28;20055;-88
2021/09/02 13:02:33;;;;;;;14.82;7.28;;;;;;;;;;5053200;28;20461;-88
2021/09/02 13:04:58;;;;;;;14.73;8.10;;;;;;;;;;5052886;28;20020;-88
2021/09/02 13:07:23;;;;;;;13.45;7.75;;;;;;;;;;5053037;28;20500;-88
2021/09/02 13:09:49;;;;;;;16.63;7.38;;;;;;;;;;5053293;28;20063;-88
2021/09/02 13:12:14;;;;;;;18.20;8.05;;;;;;;;;;5053076;28;20024;-88
2021/09/02 13:14:39;;;;;;;16.52;8.05;;;;;;;;;;5054003;28;20021;-88
2021/09/02 13:17:04;;;;;;;17.20;8.43;;;;;;;;;;5052780;28;20017;-88
2021/09/02 13:19:30;;;;;;;15.57;8.65;;;;;;;;;;5054406;28;20020;-89
2021/09/02 13:21:55;;;;;;;14.82;8.32;;;;;;;;;;5054349;28;20326;-88
2021/09/02 13:24:20;;;;;;;14.07;8.70;;;;;;;;;;5053699;28;20047;-88
2021/09/02 13:26:45;;;;;;;16.15;7.50;;;;;;;;;;5053027;28;20108;-88
2021/09/02 13:29:10;;;;;;;17.45;9.40;;;;;;;;;;5053173;28;20595;-88
2021/09/02 13:31:36;;;;;;;13.85;7.78;;;;;;;;;;5053073;28;20017;-88
2021/09/02 13:34:01;;;;;;;19.15;9.13;;;;;;;;;;5052848;28;20025;-88
2021/09/02 13:36:26;;;;;;;17.67;8.82;;;;;;;;;;5053885;28;20024;-88
2021/09/02 13:38:51;;;;;;;16.70;9.13;;;;;;;;;;5052649;28;20082;-88
2021/09/02 13:41:17;;;;;;;14.77;7.95;;;;;;;;;;5051582;28;20075;-86
2021/09/02 13:43:43;;;;;;;16.20;10.00;;;;;;;;;;5052281;28;20017;-88
2021/09/02 13:46:08;;;;;;;17.10;8.95;;;;;;;;;;5052831;28;20025;-88
2021/09/02 13:48:33;;;;;;;13.05;8.63;;;;;;;;;;5052468;28;20020;-88
2021/09/02 13:50:58;;;;;;;15.73;9.00;;;;;;;;;;5053398;28;20116;-88
2021/09/02 13:53:25;;;;;;;13.32;7.85;;;;;;;;;;5052905;28;20552;-88
2021/09/02 13:55:50;;;;;;;21.48;9.95;;;;;;;;;;5052467;28;20040;-88
2021/09/02 13:58:15;;;;;;;17.67;9.25;;;;;;;;;;5052245;28;20021;-88
2021/09/02 14:00:41;;;;;;;15.65;9.23;;;;;;;;;;5053585;28;20013;-88
2021/09/02 14:03:07;;;;;;;15.63;8.85;;;;;;;;;;5051984;28;20013;-88
2021/09/02 14:05:32;;;;;;;15.73;9.02;;;;;;;;;;5052128;28;20035;-88
2021/09/02 14:07:57;;;;;;;14.48;8.63;;;;;;;;;;5052123;28;20060;-87
2021/09/02 14:10:22;;;;;;;19.90;9.27;;;;;;;;;;5052044;28;20388;-88
2021/09/02 14:12:48;;;;;;;14.88;9.35;;;;;;;;;;5052085;28;20021;-87
2021/09/02 14:15:13;;;;;;;16.25;8.52;;;;;;;;;;5052858;28;20021;-88
2021/09/02 14:17:38;;;;;;;16.20;9.15;;;;;;;;;;5051965;28;20423;-88
2021/09/02 14:20:04;;;;;;;17.90;8.85;;;;;;;;;;5052332;28;20082;-88
2021/09/02 14:22:32;;;;;;;18.45;9.80;;;;;;;;;;5052886;28;20021;-88
2021/09/02 14:24:57;;;;;;;20.23;9.48;;;;;;;;;;5051369;28;20104;-88